Time;durP1;ratioP1;P1;durP2;ratioP2;P2;SDS_P1;SDS_P2;PMS_P1;PMS_P2;Temp;Humidity;BMP_temperature;BMP_pressure;BME280_temperature;BME280_humidity;BME280_pressure;Samples;Min_cycle;Max_cycle;Signal;HPM_P1;HPM_P2
2023/07/22 00:01:57;;;;;;;;;;;;;;;14.45;nan;100646.97;4098688;28;19922;-64
2023/07/22 00:03:59;;;;;;;;;;;;;;;14.47;nan;100639.44;4097791;28;19923;-65
2023/07/22 00:06:06;;;;;;;;;;;;;;;14.47;nan;100638.59;4097641;28;19926;-64
2023/07/22 00:08:08;;;;;;;;;;;;;;;14.45;nan;100637.94;4098447;28;19929;-63
2023/07/22 00:10:10;;;;;;;;;;;;;;;14.40;nan;100644.00;4098317;28;19938;-63
2023/07/22 00:12:12;;;;;;;;;;;;;;;14.36;nan;100648.19;4097751;28;19933;-63
2023/07/22 00:14:14;;;;;;;;;;;;;;;14.30;nan;100644.38;4097872;28;19923;-64
2023/07/22 00:16:17;;;;;;;;;;;;;;;14.24;nan;100646.03;4097947;28;19922;-63
2023/07/22 00:18:19;;;;;;;;;;;;;;;14.22;nan;100642.69;4097425;28;19933;-65
2023/07/22 00:20:22;;;;;;;;;;;;;;;14.17;nan;100647.91;4098906;28;19923;-64
2023/07/22 00:22:26;;;;;;;;;;;;;;;14.14;nan;100652.91;4097532;28;20353;-64
2023/07/22 00:24:28;;;;;;;;;;;;;;;14.11;nan;100648.72;4097864;28;19933;-63
2023/07/22 00:26:31;;;;;;;;;;;;;;;14.12;nan;100646.81;4098387;28;19933;-63
2023/07/22 00:28:33;;;;;;;;;;;;;;;14.11;nan;100651.44;4097022;28;19922;-63
2023/07/22 00:30:35;;;;;;;;;;;;;;;14.10;nan;100655.16;4097520;28;20611;-63
2023/07/22 00:32:37;;;;;;;;;;;;;;;14.08;nan;100657.25;4096827;28;19926;-64
2023/07/22 00:34:40;;;;;;;;;;;;;;;14.06;nan;100653.91;4098136;28;19937;-64
2023/07/22 00:36:44;;;;;;;;;;;;;;;14.01;nan;100643.66;4096759;28;19950;-64
2023/07/22 00:38:47;;;;;;;;;;;;;;;14.03;nan;100647.00;4097743;28;19926;-64
2023/07/22 00:40:49;;;;;;;;;;;;;;;14.03;nan;100651.59;4097947;28;19932;-64
2023/07/22 00:42:52;;;;;;;;;;;;;;;14.03;nan;100643.47;4097422;28;19928;-63
2023/07/22 00:44:54;;;;;;;;;;;;;;;14.01;nan;100643.66;4097439;28;19923;-64
2023/07/22 00:46:56;;;;;;;;;;;;;;;14.03;nan;100633.44;4097860;28;19923;-64
2023/07/22 00:48:59;;;;;;;;;;;;;;;14.04;nan;100632.41;4096304;28;19933;-64
2023/07/22 00:51:02;;;;;;;;;;;;;;;14.04;nan;100635.13;4104016;28;19933;-64
2023/07/22 00:53:04;;;;;;;;;;;;;;;14.05;nan;100641.38;4096475;28;19926;-64
2023/07/22 00:55:08;;;;;;;;;;;;;;;14.00;nan;100636.53;4112267;28;20410;-64
2023/07/22 00:57:10;;;;;;;;;;;;;;;14.00;nan;100638.44;4098089;28;19926;-64
2023/07/22 00:59:12;;;;;;;;;;;;;;;14.01;nan;100640.94;4096812;28;20639;-64
2023/07/22 01:01:14;;;;;;;;;;;;;;;14.01;nan;100643.66;4096373;28;19956;-63
2023/07/22 01:03:18;;;;;;;;;;;;;;;14.02;nan;100647.22;4096504;28;19926;-64
2023/07/22 01:05:20;;;;;;;;;;;;;;;14.04;nan;100645.13;4097729;28;19922;-66
2023/07/22 01:07:23;;;;;;;;;;;;;;;14.03;nan;100649.72;4096901;28;19927;-64
2023/07/22 01:09:25;;;;;;;;;;;;;;;14.04;nan;100642.41;4093875;28;19931;-64
2023/07/22 01:11:30;;;;;;;;;;;;;;;14.06;nan;100651.19;4112309;28;19926;-64
2023/07/22 01:13:32;;;;;;;;;;;;;;;14.10;nan;100649.75;4096960;28;19923;-64
2023/07/22 01:15:34;;;;;;;;;;;;;;;14.11;nan;100643.28;4096377;28;19932;-64
2023/07/22 01:17:37;;;;;;;;;;;;;;;14.10;nan;100640.75;4096883;28;19929;-64
2023/07/22 01:19:39;;;;;;;;;;;;;;;14.11;nan;100651.44;4096616;28;20389;-64
2023/07/22 01:21:41;;;;;;;;;;;;;;;14.11;nan;100647.88;4096771;28;19922;-64
2023/07/22 01:23:45;;;;;;;;;;;;;;;14.12;nan;100635.97;4096097;28;20377;-64
2023/07/22 01:25:47;;;;;;;;;;;;;;;14.16;nan;100639.94;4097098;28;20458;-63
2023/07/22 01:27:49;;;;;;;;;;;;;;;14.17;nan;100641.63;4096289;28;19926;-63
2023/07/22 01:29:51;;;;;;;;;;;;;;;14.19;nan;100642.25;4096545;28;19923;-63
2023/07/22 01:31:54;;;;;;;;;;;;;;;14.20;nan;100650.22;4095993;28;19926;-64
2023/07/22 01:33:56;;;;;;;;;;;;;;;14.20;nan;100657.50;4095920;28;20397;-64
2023/07/22 01:35:58;;;;;;;;;;;;;;;14.21;nan;100654.59;4112412;28;19929;-63
2023/07/22 01:38:00;;;;;;;;;;;;;;;14.24;nan;100656.06;4112150;28;19973;-64
2023/07/22 01:40:11;;;;;;;;;;;;;;;14.25;nan;100652.31;4097014;28;19951;-64
2023/07/22 01:42:13;;;;;;;;;;;;;;;14.27;nan;100652.94;4096765;28;20433;-64
2023/07/22 01:44:16;;;;;;;;;;;;;;;14.28;nan;100648.34;4096666;28;19922;-64
2023/07/22 01:46:18;;;;;;;;;;;;;;;14.29;nan;100645.41;4096300;28;19922;-64
2023/07/22 01:48:22;;;;;;;;;;;;;;;14.30;nan;100649.81;4096976;28;19933;-64
2023/07/22 01:50:24;;;;;;;;;;;;;;;14.32;nan;100644.19;4097125;28;19930;-64
2023/07/22 01:52:26;;;;;;;;;;;;;;;14.34;nan;100650.25;4096656;28;19930;-64
2023/07/22 01:54:28;;;;;;;;;;;;;;;14.36;nan;100649.00;4096431;28;20245;-65
2023/07/22 01:56:32;;;;;;;;;;;;;;;14.37;nan;100644.41;4096448;28;19926;-64
2023/07/22 01:58:34;;;;;;;;;;;;;;;14.37;nan;100655.25;4111095;28;19922;-64
2023/07/22 02:00:36;;;;;;;;;;;;;;;14.38;nan;100646.09;4111304;28;19929;-64
2023/07/22 02:02:39;;;;;;;;;;;;;;;14.40;nan;100661.16;4095983;28;19926;-65
2023/07/22 02:04:41;;;;;;;;;;;;;;;14.40;nan;100663.00;4097363;28;19930;-64
2023/07/22 02:06:44;;;;;;;;;;;;;;;14.40;nan;100658.44;4097445;28;19929;-64
2023/07/22 02:08:46;;;;;;;;;;;;;;;14.41;nan;100661.97;4095904;28;19922;-64
2023/07/22 02:10:49;;;;;;;;;;;;;;;14.41;nan;100667.41;4096122;28;19922;-64
2023/07/22 02:12:52;;;;;;;;;;;;;;;14.42;nan;100669.94;4095698;28;19930;-64
2023/07/22 02:14:55;;;;;;;;;;;;;;;14.43;nan;100670.75;4097549;28;20329;-64
2023/07/22 02:16:57;;;;;;;;;;;;;;;14.43;nan;100681.63;4096381;28;19929;-64
2023/07/22 02:18:59;;;;;;;;;;;;;;;14.43;nan;100676.19;4095252;28;19933;-65
2023/07/22 02:21:01;;;;;;;;;;;;;;;14.40;nan;100677.47;4110924;28;19922;-64
2023/07/22 02:23:03;;;;;;;;;;;;;;;14.40;nan;100679.31;4095985;28;19922;-65
2023/07/22 02:25:07;;;;;;;;;;;;;;;14.40;nan;100690.19;4097383;28;19922;-64
2023/07/22 02:27:09;;;;;;;;;;;;;;;14.41;nan;100689.97;4096470;28;19941;-64
2023/07/22 02:29:13;;;;;;;;;;;;;;;14.42;nan;100696.28;4095752;28;19933;-64
2023/07/22 02:31:15;;;;;;;;;;;;;;;14.42;nan;100697.09;4096140;28;19927;-64
2023/07/22 02:33:16;;;;;;;;;;;;;;;14.42;nan;100691.66;4095750;28;19926;-64
2023/07/22 02:35:18;;;;;;;;;;;;;;;14.44;nan;100688.75;4104077;28;19944;-63
2023/07/22 02:37:19;;;;;;;;;;;;;;;14.45;nan;100690.44;4095458;28;19930;-64
2023/07/22 02:39:21;;;;;;;;;;;;;;;14.47;nan;100699.22;4098123;28;19922;-64
2023/07/22 02:41:23;;;;;;;;;;;;;;;14.49;nan;100707.16;4099009;28;19926;-64
2023/07/22 02:43:25;;;;;;;;;;;;;;;14.54;nan;100707.38;4098882;28;20006;-64
2023/07/22 02:45:28;;;;;;;;;;;;;;;14.57;nan;100704.25;4100326;28;19926;-63
2023/07/22 02:47:30;;;;;;;;;;;;;;;14.60;nan;100703.88;4097589;28;20408;-63
2023/07/22 02:49:33;;;;;;;;;;;;;;;14.63;nan;100714.34;4099217;28;19932;-64
2023/07/22 02:51:35;;;;;;;;;;;;;;;14.62;nan;100720.81;4099796;28;19957;-64
2023/07/22 02:53:37;;;;;;;;;;;;;;;14.60;nan;100712.84;4105278;28;19922;-64
2023/07/22 02:55:40;;;;;;;;;;;;;;;14.60;nan;100714.75;4098256;28;20285;-64
2023/07/22 02:57:42;;;;;;;;;;;;;;;14.60;nan;100718.28;4098979;28;19948;-64
2023/07/22 02:59:44;;;;;;;;;;;;;;;14.62;nan;100725.41;4097737;28;19929;-64
2023/07/22 03:01:48;;;;;;;;;;;;;;;14.63;nan;100722.50;4114319;28;20411;-64
2023/07/22 03:03:50;;;;;;;;;;;;;;;14.67;nan;100733.78;4098351;28;20327;-64
2023/07/22 03:05:52;;;;;;;;;;;;;;;14.69;nan;100729.00;4098355;28;19977;-64
2023/07/22 03:07:54;;;;;;;;;;;;;;;14.67;nan;100723.78;4098374;28;19923;-64
2023/07/22 03:09:56;;;;;;;;;;;;;;;14.68;nan;100725.44;4098963;28;19922;-64
2023/07/22 03:11:58;;;;;;;;;;;;;;;14.69;nan;100727.13;4099067;28;19929;-64
2023/07/22 03:14:01;;;;;;;;;;;;;;;14.71;nan;100722.28;4098908;28;19933;-64
2023/07/22 03:16:03;;;;;;;;;;;;;;;14.73;nan;100728.38;4104614;28;19922;-64
2023/07/22 03:18:09;;;;;;;;;;;;;;;14.74;nan;100723.78;4090768;28;20049;-64
2023/07/22 03:20:14;;;;;;;;;;;;;;;14.72;nan;100725.88;4098565;28;19922;-63
2023/07/22 03:22:16;;;;;;;;;;;;;;;14.70;nan;100726.09;4098578;28;19922;-64
2023/07/22 03:24:19;;;;;;;;;;;;;;;14.69;nan;100737.16;4098150;28;19927;-64
2023/07/22 03:26:21;;;;;;;;;;;;;;;14.66;nan;100729.41;4099401;28;19933;-62
2023/07/22 03:28:25;;;;;;;;;;;;;;;14.64;nan;100736.91;4098561;28;19923;-64
2023/07/22 03:30:27;;;;;;;;;;;;;;;14.62;nan;100737.13;4098784;28;19948;-64
2023/07/22 03:32:30;;;;;;;;;;;;;;;14.64;nan;100742.34;4089900;28;19923;-63
2023/07/22 03:34:33;;;;;;;;;;;;;;;14.62;nan;100749.88;4098011;28;20364;-63
2023/07/22 03:36:35;;;;;;;;;;;;;;;14.62;nan;100744.44;4099654;28;19930;-65
2023/07/22 03:38:37;;;;;;;;;;;;;;;14.64;nan;100748.66;4097855;28;19926;-64
2023/07/22 03:40:40;;;;;;;;;;;;;;;14.61;nan;100751.75;4098773;28;19937;-64
2023/07/22 03:42:41;;;;;;;;;;;;;;;14.57;nan;100756.72;4097536;28;19922;-64
2023/07/22 03:44:43;;;;;;;;;;;;;;;14.56;nan;100763.22;4099049;28;19929;-64
2023/07/22 03:46:45;;;;;;;;;;;;;;;14.55;nan;100758.81;4099092;28;20480;-64
2023/07/22 03:48:47;;;;;;;;;;;;;;;14.55;nan;100752.53;4096089;28;20270;-63
2023/07/22 03:50:51;;;;;;;;;;;;;;;14.51;nan;100754.81;4098056;28;19922;-64
2023/07/22 03:52:53;;;;;;;;;;;;;;;14.53;nan;100757.31;4097834;28;20299;-64
2023/07/22 03:54:54;;;;;;;;;;;;;;;14.55;nan;100758.81;4098001;28;19977;-64
2023/07/22 03:56:57;;;;;;;;;;;;;;;14.57;nan;100764.03;4113817;28;19930;-63
2023/07/22 03:58:58;;;;;;;;;;;;;;;14.59;nan;100761.94;4096932;28;19922;-64
2023/07/22 04:01:00;;;;;;;;;;;;;;;14.57;nan;100764.03;4113071;28;19926;-65
2023/07/22 04:03:02;;;;;;;;;;;;;;;14.57;nan;100759.44;4098039;28;20389;-64
2023/07/22 04:05:03;;;;;;;;;;;;;;;14.57;nan;100766.75;4097721;28;19937;-65
2023/07/22 04:07:08;;;;;;;;;;;;;;;14.56;nan;100771.38;4098842;28;19922;-64
2023/07/22 04:09:11;;;;;;;;;;;;;;;14.57;nan;100772.19;4096736;28;20013;-64
2023/07/22 04:11:14;;;;;;;;;;;;;;;14.55;nan;100763.41;4098386;28;19926;-64
2023/07/22 04:13:16;;;;;;;;;;;;;;;14.55;nan;100771.56;4097376;28;19933;-64
2023/07/22 04:15:18;;;;;;;;;;;;;;;14.53;nan;100771.78;4104284;28;19999;-64
2023/07/22 04:17:20;;;;;;;;;;;;;;;14.53;nan;100779.94;4097383;28;19933;-64
2023/07/22 04:19:22;;;;;;;;;;;;;;;14.56;nan;100784.09;4098310;28;19936;-64
2023/07/22 04:21:25;;;;;;;;;;;;;;;14.54;nan;100776.16;4097402;28;19933;-64
2023/07/22 04:23:28;;;;;;;;;;;;;;;14.54;nan;100781.59;4097966;28;19928;-64
2023/07/22 04:25:31;;;;;;;;;;;;;;;14.53;nan;100777.22;4098061;28;19930;-64
2023/07/22 04:27:33;;;;;;;;;;;;;;;14.54;nan;100788.91;4097448;28;20266;-64
2023/07/22 04:29:36;;;;;;;;;;;;;;;14.52;nan;100780.94;4097705;28;19928;-64
2023/07/22 04:31:42;;;;;;;;;;;;;;;14.51;nan;100781.16;4074005;29;19933;-64
2023/07/22 04:33:45;;;;;;;;;;;;;;;14.50;nan;100784.91;4111922;28;20004;-64
2023/07/22 04:35:47;;;;;;;;;;;;;;;14.48;nan;100787.00;4097430;28;19929;-63
2023/07/22 04:37:49;;;;;;;;;;;;;;;14.48;nan;100781.56;4096895;28;19933;-64
2023/07/22 04:39:54;;;;;;;;;;;;;;;14.45;nan;100787.41;4097915;28;19922;-65
2023/07/22 04:41:56;;;;;;;;;;;;;;;14.45;nan;100788.25;4098102;28;19994;-63
2023/07/22 04:43:59;;;;;;;;;;;;;;;14.46;nan;100789.91;4096129;28;19926;-64
2023/07/22 04:46:01;;;;;;;;;;;;;;;14.48;nan;100790.56;4098096;28;19930;-63
2023/07/22 04:48:03;;;;;;;;;;;;;;;14.50;nan;100787.63;4097202;28;20498;-64
2023/07/22 04:50:08;;;;;;;;;;;;;;;14.49;nan;100783.25;4097474;28;19933;-64
2023/07/22 04:52:10;;;;;;;;;;;;;;;14.47;nan;100786.16;4098213;28;20139;-63
2023/07/22 04:54:12;;;;;;;;;;;;;;;14.48;nan;100785.13;4096985;28;21231;-64
2023/07/22 04:56:16;;;;;;;;;;;;;;;14.50;nan;100793.06;4098637;28;19923;-64
2023/07/22 04:58:20;;;;;;;;;;;;;;;14.50;nan;100791.19;4097732;28;19923;-62
2023/07/22 05:00:22;;;;;;;;;;;;;;;14.50;nan;100795.78;4097483;28;20905;-64
2023/07/22 05:02:24;;;;;;;;;;;;;;;14.51;nan;100792.84;4096852;28;19929;-64
2023/07/22 05:04:27;;;;;;;;;;;;;;;14.50;nan;100791.19;4097224;28;19922;-63
2023/07/22 05:06:29;;;;;;;;;;;;;;;14.55;nan;100791.41;4095924;28;19929;-63
2023/07/22 05:08:31;;;;;;;;;;;;;;;14.56;nan;100795.81;4095722;28;19930;-64
2023/07/22 05:10:34;;;;;;;;;;;;;;;14.57;nan;100804.81;4097744;28;19923;-64
2023/07/22 05:12:36;;;;;;;;;;;;;;;14.57;nan;100807.53;4097023;28;19922;-64
2023/07/22 05:14:38;;;;;;;;;;;;;;;14.58;nan;100803.78;4097760;28;20003;-64
2023/07/22 05:16:40;;;;;;;;;;;;;;;14.60;nan;100826.19;4097744;28;19936;-65
2023/07/22 05:18:43;;;;;;;;;;;;;;;14.63;nan;100812.19;4096454;28;19933;-63
2023/07/22 05:20:45;;;;;;;;;;;;;;;14.63;nan;100809.47;4096957;28;19942;-63
2023/07/22 05:22:46;;;;;;;;;;;;;;;14.62;nan;100807.78;4096308;28;19927;-64
2023/07/22 05:24:48;;;;;;;;;;;;;;;14.69;nan;100818.72;4097600;28;19928;-65
2023/07/22 05:26:51;;;;;;;;;;;;;;;14.70;nan;100820.38;4097594;28;19929;-65
2023/07/22 05:28:54;;;;;;;;;;;;;;;14.72;nan;100818.31;4097051;28;19926;-64
2023/07/22 05:30:59;;;;;;;;;;;;;;;14.70;nan;100813.06;4096838;28;19937;-64
2023/07/22 05:33:01;;;;;;;;;;;;;;;14.74;nan;100816.22;4096700;28;19927;-63
2023/07/22 05:35:05;;;;;;;;;;;;;;;14.76;nan;100819.56;4097506;28;19922;-63
2023/07/22 05:37:07;;;;;;;;;;;;;;;14.75;nan;100821.44;4097003;28;19930;-65
2023/07/22 05:39:09;;;;;;;;;;;;;;;14.78;nan;100820.22;4096162;28;19923;-63
2023/07/22 05:41:12;;;;;;;;;;;;;;;14.78;nan;100817.50;4097259;28;20411;-64
2023/07/22 05:43:14;;;;;;;;;;;;;;;14.83;nan;100823.16;4096031;28;19927;-64
2023/07/22 05:45:18;;;;;;;;;;;;;;;14.86;nan;100828.19;4098422;28;19923;-64
2023/07/22 05:47:19;;;;;;;;;;;;;;;14.89;nan;100830.50;4096443;28;20308;-64
2023/07/22 05:49:21;;;;;;;;;;;;;;;14.91;nan;100830.31;4097237;28;19930;-65
2023/07/22 05:51:23;;;;;;;;;;;;;;;14.95;nan;100834.28;4097288;28;19926;-64
2023/07/22 05:53:28;;;;;;;;;;;;;;;15.01;nan;100838.91;4095379;28;19926;-64
2023/07/22 05:55:30;;;;;;;;;;;;;;;15.01;nan;100836.19;4088652;29;19923;-64
2023/07/22 05:57:32;;;;;;;;;;;;;;;15.03;nan;100831.38;4097487;28;20305;-64
2023/07/22 05:59:35;;;;;;;;;;;;;;;15.02;nan;100832.41;4096661;28;19926;-65
2023/07/22 06:01:39;;;;;;;;;;;;;;;15.04;nan;100830.31;4112335;28;19972;-63
2023/07/22 06:03:42;;;;;;;;;;;;;;;15.07;nan;100839.97;4096663;28;19926;-64
2023/07/22 06:05:44;;;;;;;;;;;;;;;15.10;nan;100832.22;4096285;28;20393;-62
2023/07/22 06:07:46;;;;;;;;;;;;;;;15.14;nan;100840.84;4096199;28;19922;-66
2023/07/22 06:09:48;;;;;;;;;;;;;;;15.17;nan;100845.03;4096530;28;19936;-64
2023/07/22 06:11:50;;;;;;;;;;;;;;;15.19;nan;100846.50;4096906;28;19926;-64
2023/07/22 06:13:53;;;;;;;;;;;;;;;15.22;nan;100847.94;4096665;28;19926;-64
2023/07/22 06:15:55;;;;;;;;;;;;;;;15.24;nan;100848.59;4099891;28;19922;-64
2023/07/22 06:17:58;;;;;;;;;;;;;;;15.28;nan;100844.41;4098251;28;19932;-64
2023/07/22 06:20:01;;;;;;;;;;;;;;;15.29;nan;100856.97;4099731;28;20311;-63
2023/07/22 06:22:03;;;;;;;;;;;;;;;15.31;nan;100860.31;4099496;28;19932;-64
2023/07/22 06:24:06;;;;;;;;;;;;;;;15.32;nan;100857.41;4100398;28;20002;-61
2023/07/22 06:26:08;;;;;;;;;;;;;;;15.32;nan;100853.84;4098909;28;19927;-61
2023/07/22 06:28:10;;;;;;;;;;;;;;;15.34;nan;100861.81;4099039;28;20284;-63
2023/07/22 06:30:12;;;;;;;;;;;;;;;15.38;nan;100861.19;4099561;28;19994;-61
2023/07/22 06:32:14;;;;;;;;;;;;;;;15.39;nan;100865.59;4099014;28;19926;-62
2023/07/22 06:34:18;;;;;;;;;;;;;;;15.42;nan;100864.34;4099248;28;19929;-62
2023/07/22 06:36:20;;;;;;;;;;;;;;;15.41;nan;100857.25;4099828;28;19926;-63
2023/07/22 06:38:23;;;;;;;;;;;;;;;15.41;nan;100855.34;4099752;28;19926;-62
2023/07/22 06:40:25;;;;;;;;;;;;;;;15.47;nan;100867.31;4099507;28;19944;-63
2023/07/22 06:42:27;;;;;;;;;;;;;;;15.49;nan;100865.19;4098949;28;19926;-63
2023/07/22 06:44:29;;;;;;;;;;;;;;;15.52;nan;100863.94;4099786;28;19929;-64
2023/07/22 06:46:31;;;;;;;;;;;;;;;15.59;nan;100864.78;4099642;28;19999;-63
2023/07/22 06:48:33;;;;;;;;;;;;;;;15.61;nan;100865.41;4098744;28;19922;-63
2023/07/22 06:50:37;;;;;;;;;;;;;;;15.64;nan;100856.84;4099070;28;19926;-64
2023/07/22 06:52:39;;;;;;;;;;;;;;;15.65;nan;100863.97;4099640;28;19926;-61
2023/07/22 06:54:40;;;;;;;;;;;;;;;15.67;nan;100868.16;4099656;28;19933;-62
2023/07/22 06:56:42;;;;;;;;;;;;;;;15.72;nan;100864.81;4099231;28;20389;-66
2023/07/22 06:58:44;;;;;;;;;;;;;;;15.78;nan;100866.75;4099368;28;20296;-63
2023/07/22 07:00:46;;;;;;;;;;;;;;;15.81;nan;100866.28;4099166;28;20389;-60
2023/07/22 07:02:48;;;;;;;;;;;;;;;15.82;nan;100872.59;4098992;28;19923;-62
2023/07/22 07:04:50;;;;;;;;;;;;;;;15.84;nan;100874.06;4099546;28;20369;-63
2023/07/22 07:06:53;;;;;;;;;;;;;;;15.87;nan;100875.53;4099191;29;19940;-64
2023/07/22 07:08:55;;;;;;;;;;;;;;;15.90;nan;100875.13;4097475;28;20393;-64
2023/07/22 07:10:59;;;;;;;;;;;;;;;15.94;nan;100872.81;4099636;28;19929;-65
2023/07/22 07:13:01;;;;;;;;;;;;;;;15.96;nan;100871.56;4098106;28;19930;-63
2023/07/22 07:15:04;;;;;;;;;;;;;;;16.01;nan;100879.09;4098833;28;19922;-64
2023/07/22 07:17:06;;;;;;;;;;;;;;;16.01;nan;100877.19;4099598;28;20289;-62
2023/07/22 07:19:07;;;;;;;;;;;;;;;16.05;nan;100885.81;4097999;28;19922;-64
2023/07/22 07:21:09;;;;;;;;;;;;;;;16.07;nan;100883.72;4098520;28;19926;-63
2023/07/22 07:23:13;;;;;;;;;;;;;;;16.05;nan;100877.66;4098735;28;19929;-63
2023/07/22 07:25:15;;;;;;;;;;;;;;;16.09;nan;100888.94;4098976;28;20411;-63
2023/07/22 07:27:17;;;;;;;;;;;;;;;16.09;nan;100881.59;4098857;28;20301;-63
2023/07/22 07:29:19;;;;;;;;;;;;;;;16.10;nan;100871.56;4098226;28;20399;-64
2023/07/22 07:31:22;;;;;;;;;;;;;;;16.12;nan;100886.63;4098920;28;19922;-62
2023/07/22 07:33:24;;;;;;;;;;;;;;;16.14;nan;100880.97;4113640;28;20371;-61
2023/07/22 07:35:26;;;;;;;;;;;;;;;16.10;nan;100885.19;4099151;28;19922;-63
2023/07/22 07:37:28;;;;;;;;;;;;;;;16.13;nan;100885.59;4098066;28;20389;-63
2023/07/22 07:39:32;;;;;;;;;;;;;;;16.16;nan;100882.44;4099528;28;19926;-63
2023/07/22 07:41:34;;;;;;;;;;;;;;;16.19;nan;100887.47;4098768;28;19922;-60
2023/07/22 07:43:36;;;;;;;;;;;;;;;16.27;nan;100889.16;4098832;28;20193;-60
2023/07/22 07:45:39;;;;;;;;;;;;;;;16.31;nan;100897.75;4098194;28;20424;-63
2023/07/22 07:47:40;;;;;;;;;;;;;;;16.38;nan;100893.97;4096915;28;20324;-62
2023/07/22 07:49:42;;;;;;;;;;;;;;;16.44;nan;100900.47;4098616;28;19932;-63
2023/07/22 07:51:45;;;;;;;;;;;;;;;16.46;nan;100889.34;4098747;28;19922;-63
2023/07/22 07:53:47;;;;;;;;;;;;;;;16.50;nan;100907.75;4098561;28;19933;-62
2023/07/22 07:55:51;;;;;;;;;;;;;;;16.51;nan;100898.53;4098952;28;20395;-62
2023/07/22 07:57:53;;;;;;;;;;;;;;;16.52;nan;100894.78;4098829;28;19926;-64
2023/07/22 07:59:55;;;;;;;;;;;;;;;16.53;nan;100901.06;4098039;28;19923;-63
2023/07/22 08:01:59;;;;;;;;;;;;;;;16.58;nan;100913.00;4098040;28;20308;-64
2023/07/22 08:04:00;;;;;;;;;;;;;;;16.59;nan;100911.13;4112954;28;19929;-64
2023/07/22 08:06:02;;;;;;;;;;;;;;;16.64;nan;100905.03;4098872;28;19928;-63
2023/07/22 08:08:05;;;;;;;;;;;;;;;16.70;nan;100906.91;4097112;28;20300;-61
2023/07/22 08:10:09;;;;;;;;;;;;;;;16.73;nan;100909.19;4098354;28;19933;-62
2023/07/22 08:12:12;;;;;;;;;;;;;;;16.72;nan;100908.38;4098261;29;19929;-62
2023/07/22 08:14:14;;;;;;;;;;;;;;;16.74;nan;100908.16;4097775;28;20609;-64
2023/07/22 08:16:16;;;;;;;;;;;;;;;16.78;nan;100908.56;4097644;28;19929;-62
2023/07/22 08:18:19;;;;;;;;;;;;;;;16.81;nan;100905.41;4097390;28;20389;-61
2023/07/22 08:20:21;;;;;;;;;;;;;;;16.80;nan;100903.72;4097779;28;19923;-63
2023/07/22 08:22:23;;;;;;;;;;;;;;;16.84;nan;100905.81;4097714;28;19922;-63
2023/07/22 08:24:25;;;;;;;;;;;;;;;16.93;nan;100909.19;4097745;28;20340;-62
2023/07/22 08:26:28;;;;;;;;;;;;;;;16.98;nan;100903.91;4098393;28;19926;-63
2023/07/22 08:28:32;;;;;;;;;;;;;;;17.00;nan;100900.97;4097608;28;19922;-63
2023/07/22 08:30:34;;;;;;;;;;;;;;;17.01;nan;100903.47;4098261;28;19926;-64
2023/07/22 08:32:36;;;;;;;;;;;;;;;17.06;nan;100902.84;4096963;28;19998;-63
2023/07/22 08:34:39;;;;;;;;;;;;;;;17.11;nan;100911.19;4098032;28;19930;-62
2023/07/22 08:36:42;;;;;;;;;;;;;;;17.12;nan;100921.06;4098171;28;19944;-62
2023/07/22 08:38:44;;;;;;;;;;;;;;;17.18;nan;100909.28;4096786;28;19989;-64
2023/07/22 08:40:49;;;;;;;;;;;;;;;17.21;nan;100922.50;4096901;28;20011;-63
2023/07/22 08:42:51;;;;;;;;;;;;;;;17.23;nan;100919.56;4097117;28;19929;-62
2023/07/22 08:44:58;;;;;;;;;;;;;;;17.23;nan;100927.75;4097151;29;20385;-63
2023/07/22 08:47:00;;;;;;;;;;;;;;;17.25;nan;100922.91;4096323;28;19923;-62
2023/07/22 08:49:02;;;;;;;;;;;;;;;17.27;nan;100921.63;4096292;28;19923;-63
2023/07/22 08:51:06;;;;;;;;;;;;;;;17.30;nan;100928.53;4097433;28;19926;-64
2023/07/22 08:53:08;;;;;;;;;;;;;;;17.33;nan;100935.47;4097307;28;20381;-62
2023/07/22 08:55:10;;;;;;;;;;;;;;;17.35;nan;100925.16;4089499;28;20409;-66
2023/07/22 08:57:13;;;;;;;;;;;;;;;17.38;nan;100933.78;4097213;28;19926;-65
2023/07/22 08:59:15;;;;;;;;;;;;;;;17.41;nan;100937.94;4104412;28;19929;-64
2023/07/22 09:01:18;;;;;;;;;;;;;;;17.42;nan;100934.16;4097906;28;19922;-65
2023/07/22 09:03:21;;;;;;;;;;;;;;;17.41;nan;100935.22;4096316;28;19929;-63
2023/07/22 09:05:23;;;;;;;;;;;;;;;17.46;nan;100929.91;4098149;28;19948;-65
2023/07/22 09:07:27;;;;;;;;;;;;;;;17.48;nan;100925.09;4096281;28;19934;-64
2023/07/22 09:09:29;;;;;;;;;;;;;;;17.53;nan;100943.56;4097037;28;20284;-63
2023/07/22 09:11:31;;;;;;;;;;;;;;;17.51;nan;100926.53;4112386;28;19945;-65
2023/07/22 09:13:33;;;;;;;;;;;;;;;17.50;nan;100930.34;4097093;28;19929;-63
2023/07/22 09:15:36;;;;;;;;;;;;;;;17.50;nan;100935.81;4097327;28;19927;-64
2023/07/22 09:17:40;;;;;;;;;;;;;;;17.48;nan;100942.31;4096270;28;19922;-65
2023/07/22 09:19:42;;;;;;;;;;;;;;;17.50;nan;100935.81;4096087;28;19931;-62
2023/07/22 09:21:45;;;;;;;;;;;;;;;17.51;nan;100932.84;4097056;28;20321;-63
2023/07/22 09:23:47;;;;;;;;;;;;;;;17.55;nan;100925.88;4096990;28;19926;-63
2023/07/22 09:25:48;;;;;;;;;;;;;;;17.53;nan;100929.91;4097585;28;19926;-65
2023/07/22 09:27:51;;;;;;;;;;;;;;;17.57;nan;100933.84;4097481;28;19923;-60
2023/07/22 09:29:53;;;;;;;;;;;;;;;17.57;nan;100917.47;4096645;28;19929;-65
2023/07/22 09:31:55;;;;;;;;;;;;;;;17.63;nan;100928.38;4097463;28;20423;-63
2023/07/22 09:34:00;;;;;;;;;;;;;;;17.63;nan;100925.66;4096336;28;19927;-65
2023/07/22 09:36:03;;;;;;;;;;;;;;;17.67;nan;100941.59;4097957;28;19926;-63
2023/07/22 09:38:06;;;;;;;;;;;;;;;17.66;nan;100940.75;4096939;28;19929;-63
2023/07/22 09:40:14;;;;;;;;;;;;;;;17.65;nan;100939.09;4097697;28;20304;-62
2023/07/22 09:42:24;;;;;;;;;;;;;;;17.68;nan;100929.59;4096740;28;19926;-62
2023/07/22 09:44:29;;;;;;;;;;;;;;;17.71;nan;100926.44;4097003;28;19926;-63
2023/07/22 09:46:32;;;;;;;;;;;;;;;17.73;nan;100930.63;4097164;28;19922;-63
2023/07/22 09:48:40;;;;;;;;;;;;;;;17.76;nan;100922.00;4096782;28;19922;-64
2023/07/22 09:50:43;;;;;;;;;;;;;;;17.77;nan;100931.88;4099338;28;19927;-64
2023/07/22 09:52:47;;;;;;;;;;;;;;;17.83;nan;100941.06;4101016;28;20300;-64
2023/07/22 09:54:50;;;;;;;;;;;;;;;17.84;nan;100932.66;4097611;28;19922;-65
2023/07/22 09:56:52;;;;;;;;;;;;;;;17.86;nan;100937.88;4098448;28;19928;-63
2023/07/22 09:58:54;;;;;;;;;;;;;;;17.86;nan;100932.44;4100085;28;19923;-63
2023/07/22 10:00:57;;;;;;;;;;;;;;;17.89;nan;100944.84;4101086;28;19923;-63
2023/07/22 10:02:59;;;;;;;;;;;;;;;17.92;nan;100938.94;4099859;28;19970;-62
2023/07/22 10:05:01;;;;;;;;;;;;;;;17.91;nan;100946.28;4099351;28;19930;-62
2023/07/22 10:07:05;;;;;;;;;;;;;;;17.93;nan;100946.06;4097804;28;19926;-62
2023/07/22 10:09:08;;;;;;;;;;;;;;;17.95;nan;100944.78;4098414;28;20450;-62
2023/07/22 10:11:10;;;;;;;;;;;;;;;17.97;nan;100947.31;4097971;28;19922;-62
2023/07/22 10:13:12;;;;;;;;;;;;;;;17.96;nan;100951.94;4098228;28;19995;-63
2023/07/22 10:15:15;;;;;;;;;;;;;;;17.98;nan;100949.81;4100378;28;20434;-61
2023/07/22 10:17:17;;;;;;;;;;;;;;;18.01;nan;100945.81;4099655;28;19926;-63
2023/07/22 10:19:20;;;;;;;;;;;;;;;18.06;nan;100939.69;4100316;28;19929;-62
2023/07/22 10:21:22;;;;;;;;;;;;;;;18.09;nan;100941.97;4099879;28;19923;-63
2023/07/22 10:23:26;;;;;;;;;;;;;;;18.12;nan;100931.44;4099885;28;19922;-62
2023/07/22 10:25:28;;;;;;;;;;;;;;;18.19;nan;100939.56;4100034;28;19945;-63
2023/07/22 10:27:30;;;;;;;;;;;;;;;18.23;nan;100943.53;4100296;28;19929;-63
2023/07/22 10:29:33;;;;;;;;;;;;;;;18.26;nan;100944.97;4099930;28;19926;-62
2023/07/22 10:31:35;;;;;;;;;;;;;;;18.27;nan;100947.50;4099630;28;19929;-63
2023/07/22 10:33:37;;;;;;;;;;;;;;;18.29;nan;100939.91;4099093;28;19937;-63
2023/07/22 10:35:44;;;;;;;;;;;;;;;18.32;nan;100944.09;4099132;28;19929;-61
2023/07/22 10:37:46;;;;;;;;;;;;;;;18.35;nan;100932.69;4100153;28;20317;-63
2023/07/22 10:39:50;;;;;;;;;;;;;;;18.39;nan;100944.03;4099513;28;20330;-63
2023/07/22 10:41:52;;;;;;;;;;;;;;;18.43;nan;100942.53;4099666;28;20356;-64
2023/07/22 10:43:55;;;;;;;;;;;;;;;18.47;nan;100941.84;4098915;28;19922;-64
2023/07/22 10:45:57;;;;;;;;;;;;;;;18.47;nan;100939.13;4099945;28;20415;-64
2023/07/22 10:48:04;;;;;;;;;;;;;;;18.47;nan;100938.28;4098890;28;19926;-65